Time;durP1;ratioP1;P1;durP2;ratioP2;P2;SDS_P1;SDS_P2;PMS_P1;PMS_P2;Temp;Humidity;BMP_temperature;BMP_pressure;BME280_temperature;BME280_humidity;BME280_pressure;Samples;Min_cycle;Max_cycle;Signal;HPM_P1;HPM_P2
2023/10/21 00:02:22;;;;;;;1.42;1.30;;;;;;;19.05;53.74;98135.44;5072455;28;20049;-57
2023/10/21 00:04:47;;;;;;;1.08;0.65;;;;;;;19.03;53.91;98137.59;5070854;28;20066;-57
2023/10/21 00:07:12;;;;;;;1.20;1.10;;;;;;;18.99;54.07;98143.75;5072388;28;20041;-57
2023/10/21 00:09:38;;;;;;;0.82;0.68;;;;;;;18.96;53.95;98139.66;5054280;28;20037;-57
2023/10/21 00:12:06;;;;;;;3.50;0.73;;;;;;;18.95;53.86;98143.44;5073123;28;20435;-57
2023/10/21 00:14:32;;;;;;;1.27;0.70;;;;;;;18.97;53.99;98157.59;5070127;28;20033;-58
2023/10/21 00:16:57;;;;;;;5.63;0.70;;;;;;;18.95;54.38;98153.47;5071035;28;20645;-57
2023/10/21 00:19:22;;;;;;;5.03;0.75;;;;;;;18.92;53.76;98157.50;5072327;28;20044;-57
2023/10/21 00:21:48;;;;;;;0.82;0.73;;;;;;;18.89;53.98;98158.00;5072283;28;20039;-57
2023/10/21 00:24:13;;;;;;;1.02;0.80;;;;;;;18.91;53.83;98163.16;5070888;28;20043;-57
2023/10/21 00:26:47;;;;;;;4.25;1.05;;;;;;;18.89;53.84;98168.84;5071070;28;20107;-58
2023/10/21 00:29:16;;;;;;;1.90;0.88;;;;;;;18.91;54.30;98174.84;5071091;28;20035;-58
2023/10/21 00:31:43;;;;;;;3.08;1.00;;;;;;;18.87;53.89;98179.09;5054596;28;20028;-58
2023/10/21 00:34:09;;;;;;;2.38;0.93;;;;;;;18.89;53.74;98192.44;5072314;28;20044;-58
2023/10/21 00:36:34;;;;;;;0.80;0.80;;;;;;;18.86;53.84;98191.06;5071298;28;20045;-58
2023/10/21 00:38:59;;;;;;;1.33;0.60;;;;;;;18.86;53.65;98193.75;5071329;28;20056;-58
2023/10/21 00:41:25;;;;;;;0.52;0.52;;;;;;;18.86;53.37;98207.31;5054854;28;20039;-58
2023/10/21 00:43:50;;;;;;;3.33;0.75;;;;;;;18.85;54.07;98208.38;5055079;28;20038;-58
2023/10/21 00:46:17;;;;;;;1.38;0.77;;;;;;;18.87;53.81;98211.66;5072689;28;20112;-58
2023/10/21 00:48:43;;;;;;;4.80;1.20;;;;;;;18.86;53.99;98220.88;5054222;28;20480;-58
2023/10/21 00:51:09;;;;;;;0.85;0.70;;;;;;;18.88;54.37;98217.91;5072882;28;20032;-58
2023/10/21 00:53:36;;;;;;;0.90;0.90;;;;;;;18.86;54.18;98226.31;5071191;28;20041;-58
2023/10/21 00:56:02;;;;;;;5.20;1.00;;;;;;;18.88;54.29;98232.31;5054304;28;20113;-58
2023/10/21 00:58:31;;;;;;;1.00;0.90;;;;;;;18.88;54.03;98234.19;5071272;28;20052;-57
2023/10/21 01:00:57;;;;;;;1.92;0.82;;;;;;;18.88;53.76;98240.44;5072137;28;20067;-57
2023/10/21 01:03:25;;;;;;;0.95;0.70;;;;;;;18.86;54.66;98237.16;5054200;28;20085;-57
2023/10/21 01:05:50;;;;;;;3.17;1.00;;;;;;;18.85;53.76;98246.34;5070454;28;20043;-57
2023/10/21 01:08:16;;;;;;;2.17;0.82;;;;;;;18.93;53.83;98255.97;5071924;28;20037;-57
2023/10/21 01:10:41;;;;;;;5.45;1.00;;;;;;;18.92;54.35;98255.19;5053803;28;20063;-57
2023/10/21 01:13:06;;;;;;;3.45;0.85;;;;;;;18.92;53.83;98255.19;5071779;28;20037;-58
2023/10/21 01:15:32;;;;;;;4.15;1.00;;;;;;;18.95;54.12;98267.41;5071355;28;20033;-58
2023/10/21 01:17:57;;;;;;;0.82;0.70;;;;;;;18.95;54.26;98262.00;5074160;28;20036;-57
2023/10/21 01:20:22;;;;;;;2.78;1.05;;;;;;;18.95;53.89;98265.53;5077137;28;20037;-58
2023/10/21 01:22:48;;;;;;;4.32;1.10;;;;;;;18.95;53.43;98268.25;5076863;28;20033;-58
2023/10/21 01:25:13;;;;;;;3.25;1.00;;;;;;;18.91;54.49;98263.53;5075266;28;20033;-58
2023/10/21 01:27:38;;;;;;;2.50;0.77;;;;;;;18.97;54.46;98271.53;5074990;28;20029;-58
2023/10/21 01:30:07;;;;;;;0.77;0.77;;;;;;;19.01;54.04;98278.09;5075360;28;20120;-58
2023/10/21 01:32:33;;;;;;;2.45;0.90;;;;;;;19.01;53.99;98269.16;5075062;28;20029;-58
2023/10/21 01:34:59;;;;;;;1.95;1.20;;;;;;;19.03;54.49;98281.41;5057551;28;20036;-58
2023/10/21 01:37:24;;;;;;;6.22;1.08;;;;;;;19.05;54.00;98273.84;5074949;28;20084;-58
2023/10/21 01:39:49;;;;;;;5.72;1.20;;;;;;;19.07;53.81;98279.84;5073726;28;20399;-58
2023/10/21 01:42:15;;;;;;;3.92;1.25;;;;;;;19.05;54.22;98273.84;5073807;28;20028;-58
2023/10/21 01:44:40;;;;;;;3.33;1.17;;;;;;;19.08;53.86;98284.19;5073530;28;20527;-58
2023/10/21 01:47:06;;;;;;;3.05;1.05;;;;;;;19.09;54.34;98285.84;5073518;28;20029;-58
2023/10/21 01:49:32;;;;;;;2.85;1.40;;;;;;;19.09;54.17;98285.03;5074089;28;20047;-58
2023/10/21 01:51:58;;;;;;;4.65;1.25;;;;;;;19.10;54.64;98283.94;5074790;28;20053;-58
2023/10/21 01:54:23;;;;;;;2.42;1.50;;;;;;;19.11;54.59;98289.13;5055409;28;20036;-58
2023/10/21 01:56:48;;;;;;;3.92;1.30;;;;;;;19.15;54.26;98289.47;5072424;28;20406;-58
2023/10/21 01:59:14;;;;;;;2.08;1.15;;;;;;;19.19;54.96;98296.88;5073280;28;20072;-57
2023/10/21 02:01:40;;;;;;;3.42;0.98;;;;;;;19.24;55.06;98292.56;5073040;28;20048;-58
2023/10/21 02:04:06;;;;;;;1.38;1.20;;;;;;;19.26;54.99;98290.47;5073064;28;20094;-57
2023/10/21 02:06:31;;;;;;;1.30;1.20;;;;;;;19.31;54.39;98304.09;5073269;28;20043;-57
2023/10/21 02:08:56;;;;;;;5.72;1.17;;;;;;;19.33;54.82;98296.53;5074320;28;20452;-57
2023/10/21 02:11:22;;;;;;;3.38;1.45;;;;;;;19.38;54.75;98310.19;5074307;28;20028;-58
2023/10/21 02:13:48;;;;;;;2.33;1.13;;;;;;;19.42;55.17;98311.38;5074098;28;20109;-57
2023/10/21 02:16:13;;;;;;;2.40;1.30;;;;;;;19.47;54.55;98314.16;5074071;28;20028;-57
2023/10/21 02:18:39;;;;;;;1.52;0.73;;;;;;;19.52;54.82;98322.38;5072802;28;20032;-57
2023/10/21 02:21:06;;;;;;;1.30;1.17;;;;;;;19.56;55.18;98318.13;5074121;28;20053;-58
2023/10/21 02:23:31;;;;;;;3.10;1.00;;;;;;;19.64;55.18;98321.25;5072721;28;20440;-58
2023/10/21 02:26:03;;;;;;;3.13;0.70;;;;;;;19.74;55.40;98331.41;5073984;28;20067;-57
2023/10/21 02:28:29;;;;;;;1.02;0.80;;;;;;;19.83;56.00;98329.09;5075194;28;20040;-60
2023/10/21 02:30:55;;;;;;;1.80;0.70;;;;;;;19.90;55.36;98341.47;5082663;28;20028;-60
2023/10/21 02:33:21;;;;;;;3.22;1.30;;;;;;;19.91;55.82;98332.22;5083581;28;20024;-58
2023/10/21 02:35:53;;;;;;;4.25;0.50;;;;;;;20.04;55.49;98347.34;5087943;28;20024;-58
2023/10/21 02:38:19;;;;;;;1.33;0.70;;;;;;;20.10;56.01;98347.16;5092265;28;20023;-58
2023/10/21 02:40:44;;;;;;;3.40;0.70;;;;;;;20.18;55.73;98354.06;5083326;28;20024;-58
2023/10/21 02:43:10;;;;;;;4.90;1.10;;;;;;;20.23;56.10;98357.69;5065174;28;20425;-60
2023/10/21 02:45:35;;;;;;;1.40;0.98;;;;;;;20.31;55.96;98365.44;5084102;28;20095;-58
2023/10/21 02:48:00;;;;;;;1.58;1.05;;;;;;;20.34;55.49;98369.53;5082075;28;20023;-58
2023/10/21 02:50:26;;;;;;;3.53;0.90;;;;;;;20.40;56.28;98370.44;5082287;28;20084;-60
2023/10/21 02:52:52;;;;;;;1.55;0.90;;;;;;;20.42;54.98;98365.53;5083165;28;20412;-58
2023/10/21 02:55:18;;;;;;;3.30;0.95;;;;;;;20.46;55.00;98372.13;5080367;28;20170;-58
2023/10/21 02:57:44;;;;;;;2.33;0.80;;;;;;;20.47;55.61;98373.75;5084384;28;20016;-60
2023/10/21 03:00:16;;;;;;;1.27;0.63;;;;;;;20.50;55.54;98384.13;5082993;28;20040;-58
2023/10/21 03:02:44;;;;;;;2.75;0.88;;;;;;;20.47;55.68;98396.34;5077927;28;20029;-58
2023/10/21 03:05:11;;;;;;;1.35;0.68;;;;;;;20.51;55.97;98392.06;5071893;28;20125;-57
2023/10/21 03:07:37;;;;;;;1.20;0.90;;;;;;;20.54;55.01;98394.28;5072624;28;20055;-58
2023/10/21 03:10:03;;;;;;;0.93;0.47;;;;;;;20.55;55.48;98392.34;5071989;28;20483;-58
2023/10/21 03:12:28;;;;;;;1.20;0.50;;;;;;;20.58;54.90;98402.75;5072839;28;20028;-60
2023/10/21 03:14:55;;;;;;;1.67;0.85;;;;;;;20.56;55.48;98399.44;5073048;28;20043;-57
2023/10/21 03:17:20;;;;;;;2.13;0.80;;;;;;;20.60;55.37;98414.22;5073674;28;20078;-57
2023/10/21 03:19:46;;;;;;;2.80;0.82;;;;;;;20.61;55.63;98410.41;5073201;28;20037;-57
2023/10/21 03:22:12;;;;;;;1.10;0.73;;;;;;;20.62;55.92;98425.66;5055062;28;20046;-58
2023/10/21 03:24:37;;;;;;;2.83;0.80;;;;;;;20.64;54.87;98428.94;5072817;28;20047;-58
2023/10/21 03:27:03;;;;;;;0.73;0.73;;;;;;;20.66;55.89;98433.03;5072979;28;20384;-58
2023/10/21 03:29:28;;;;;;;3.50;1.13;;;;;;;20.67;55.72;98439.31;5072443;28;20120;-58
2023/10/21 03:31:53;;;;;;;7.22;0.80;;;;;;;20.66;55.09;98440.41;5054861;28;20035;-58
2023/10/21 03:34:19;;;;;;;1.73;1.13;;;;;;;20.62;55.62;98439.25;5071487;28;20064;-58
2023/10/21 03:36:45;;;;;;;2.78;0.90;;;;;;;20.63;55.75;98440.91;5054673;28;20111;-58
2023/10/21 03:39:11;;;;;;;2.92;0.75;;;;;;;20.62;55.47;98444.69;5072165;28;20025;-58
2023/10/21 03:41:37;;;;;;;0.95;0.95;;;;;;;20.62;55.59;98450.97;5072814;28;20033;-59
2023/10/21 03:44:03;;;;;;;1.67;0.60;;;;;;;20.63;55.64;98454.50;5071131;28;20025;-58
2023/10/21 03:46:30;;;;;;;1.50;0.85;;;;;;;20.62;55.54;98453.69;5071410;28;20056;-58
2023/10/21 03:48:55;;;;;;;1.65;0.80;;;;;;;20.61;55.21;98456.66;5071387;28;20087;-58
2023/10/21 03:51:21;;;;;;;4.28;0.80;;;;;;;20.64;55.95;98456.16;5071446;28;20510;-58
2023/10/21 03:53:47;;;;;;;3.10;0.70;;;;;;;20.65;55.35;98457.81;5071034;28;20400;-58
2023/10/21 03:56:12;;;;;;;1.63;0.68;;;;;;;20.68;55.69;98457.28;5071318;28;20025;-58
2023/10/21 03:58:39;;;;;;;2.05;1.00;;;;;;;20.68;55.73;98460.00;5071285;28;20111;-58
2023/10/21 04:01:05;;;;;;;1.75;0.55;;;;;;;20.67;55.35;98458.34;5072555;28;20028;-58
2023/10/21 04:03:30;;;;;;;1.38;1.05;;;;;;;20.67;55.67;98464.63;5071101;28;20021;-58
2023/10/21 04:05:56;;;;;;;3.00;0.80;;;;;;;20.68;55.32;98465.47;5071285;28;20031;-58
2023/10/21 04:08:22;;;;;;;4.30;1.35;;;;;;;20.69;55.46;98469.81;5054382;28;20035;-58
2023/10/21 04:10:47;;;;;;;5.88;0.95;;;;;;;20.69;55.63;98469.81;5034681;28;20074;-58
2023/10/21 04:13:13;;;;;;;4.13;1.40;;;;;;;20.72;55.62;98474.75;5050729;28;20430;-59
2023/10/21 04:15:39;;;;;;;5.70;0.90;;;;;;;20.70;55.69;98469.56;5051029;28;20033;-58
2023/10/21 04:18:04;;;;;;;4.30;1.30;;;;;;;20.72;55.41;98477.47;5052320;28;20041;-58
2023/10/21 04:20:31;;;;;;;2.80;0.90;;;;;;;20.74;55.59;98478.06;5034313;28;20450;-58
2023/10/21 04:22:57;;;;;;;2.63;0.90;;;;;;;20.72;55.35;98478.28;5052113;28;20539;-58
2023/10/21 04:25:22;;;;;;;2.28;1.10;;;;;;;20.73;55.93;98492.72;5051090;28;20048;-59
2023/10/21 04:27:48;;;;;;;2.13;1.20;;;;;;;20.73;55.76;98498.16;5050928;28;20112;-58
2023/10/21 04:30:13;;;;;;;2.50;0.90;;;;;;;20.74;56.21;98514.22;5052009;28;20549;-58
2023/10/21 04:32:39;;;;;;;3.80;1.23;;;;;;;20.76;56.14;98508.56;5050720;28;20039;-58
2023/10/21 04:35:04;;;;;;;4.20;1.73;;;;;;;20.77;55.56;98507.50;5050703;28;20037;-58
2023/10/21 04:37:34;;;;;;;1.92;1.23;;;;;;;20.78;55.89;98509.94;5034171;28;20047;-57
2023/10/21 04:39:59;;;;;;;1.30;1.15;;;;;;;20.79;55.34;98510.78;5034633;28;20041;-58
2023/10/21 04:42:24;;;;;;;5.25;1.33;;;;;;;20.82;56.12;98518.44;5033926;28;20056;-58
2023/10/21 04:44:51;;;;;;;3.35;1.10;;;;;;;20.81;55.21;98516.78;5050658;28;20044;-58
2023/10/21 04:47:16;;;;;;;4.22;1.25;;;;;;;20.81;55.48;98522.22;5052135;28;20037;-58
2023/10/21 04:49:45;;;;;;;6.00;1.55;;;;;;;20.83;55.54;98531.78;5033987;28;20029;-58
2023/10/21 04:52:11;;;;;;;3.67;1.65;;;;;;;20.82;55.46;98529.31;5053491;28;20427;-58
2023/10/21 04:54:37;;;;;;;4.95;1.67;;;;;;;20.79;55.71;98529.81;5037904;28;20044;-58
2023/10/21 04:57:02;;;;;;;7.03;1.40;;;;;;;20.82;55.52;98526.59;5055611;28;20396;-58
2023/10/21 04:59:28;;;;;;;7.35;1.30;;;;;;;20.84;55.33;98532.59;5037621;28;20498;-58
2023/10/21 05:01:53;;;;;;;3.17;1.27;;;;;;;20.84;55.33;98521.72;5055903;28;20036;-58
2023/10/21 05:04:18;;;;;;;3.35;1.85;;;;;;;20.85;55.54;98529.63;5055568;28;20190;-58
2023/10/21 05:06:44;;;;;;;4.32;1.80;;;;;;;20.84;55.00;98540.78;5055629;28;20032;-58
2023/10/21 05:09:11;;;;;;;1.45;1.27;;;;;;;20.85;55.56;98539.72;5054635;28;20029;-58
2023/10/21 05:11:36;;;;;;;3.97;1.35;;;;;;;20.85;55.37;98542.44;5037829;28;20122;-58
2023/10/21 05:14:02;;;;;;;2.97;1.13;;;;;;;20.83;54.92;98553.56;5055624;28;20132;-59
2023/10/21 05:16:27;;;;;;;3.40;1.10;;;;;;;20.81;55.45;98550.28;5054143;28;20041;-59
2023/10/21 05:18:52;;;;;;;6.65;0.90;;;;;;;20.83;54.98;98547.28;5037538;28;20044;-59
2023/10/21 05:21:18;;;;;;;9.18;2.35;;;;;;;20.84;54.72;98559.81;5054256;28;20037;-59
2023/10/21 05:23:43;;;;;;;3.88;0.80;;;;;;;20.85;54.54;98556.03;5053769;28;20036;-58
2023/10/21 05:26:08;;;;;;;2.28;0.52;;;;;;;20.83;54.97;98555.44;5037268;28;20496;-58
2023/10/21 05:28:34;;;;;;;1.48;0.73;;;;;;;20.85;55.52;98561.47;5055021;28;20496;-59
2023/10/21 05:31:01;;;;;;;2.92;0.70;;;;;;;20.84;55.02;98565.28;5054042;28;20037;-59
2023/10/21 05:33:26;;;;;;;2.15;0.40;;;;;;;20.86;55.35;98579.44;5037089;28;20415;-60
2023/10/21 05:35:52;;;;;;;2.17;0.52;;;;;;;20.86;54.98;98574.00;5054101;28;20045;-58
2023/10/21 05:38:19;;;;;;;4.22;0.70;;;;;;;20.86;55.43;98579.44;5037005;28;20060;-59
2023/10/21 05:40:46;;;;;;;3.90;0.60;;;;;;;20.89;54.60;98578.94;5054845;28;20036;-59
2023/10/21 05:43:11;;;;;;;2.47;0.73;;;;;;;20.93;55.26;98580.09;5036885;28;20114;-59
2023/10/21 05:45:38;;;;;;;2.65;0.73;;;;;;;20.96;55.08;98589.66;5038257;28;20065;-58
2023/10/21 05:48:04;;;;;;;1.17;1.00;;;;;;;20.99;54.35;98600.06;5037568;28;20029;-58
2023/10/21 05:50:30;;;;;;;4.82;1.13;;;;;;;20.94;54.90;98592.63;5054840;28;20098;-58
2023/10/21 05:52:56;;;;;;;2.95;1.20;;;;;;;20.97;54.78;98608.44;5036772;28;20068;-58
2023/10/21 05:55:22;;;;;;;2.47;0.70;;;;;;;20.97;54.58;98619.34;5053474;28;20500;-58
2023/10/21 05:57:47;;;;;;;2.67;0.95;;;;;;;20.98;54.66;98615.56;5054775;28;20052;-58
2023/10/21 06:00:13;;;;;;;2.78;0.60;;;;;;;21.00;54.61;98629.72;5053243;28;20404;-59
2023/10/21 06:02:39;;;;;;;3.08;0.73;;;;;;;21.02;54.71;98643.91;5052878;28;20037;-58
2023/10/21 06:05:07;;;;;;;3.95;0.70;;;;;;;21.01;55.18;98642.28;5036777;28;20446;-59
2023/10/21 06:07:33;;;;;;;1.55;0.70;;;;;;;21.00;54.73;98640.63;5036985;28;20037;-58
2023/10/21 06:09:58;;;;;;;0.93;0.40;;;;;;;20.99;54.18;98643.63;5053017;28;20523;-58
2023/10/21 06:12:24;;;;;;;2.42;0.45;;;;;;;20.98;54.17;98652.84;5036365;28;20504;-59
2023/10/21 06:14:50;;;;;;;1.20;0.70;;;;;;;20.96;54.55;98657.72;5055287;28;20040;-58
2023/10/21 06:17:17;;;;;;;2.47;0.32;;;;;;;20.97;54.47;98667.50;5036847;28;20037;-58
2023/10/21 06:19:43;;;;;;;1.80;0.30;;;;;;;20.96;55.03;98683.03;5054415;28;20385;-58
2023/10/21 06:22:09;;;;;;;3.83;0.65;;;;;;;20.96;54.86;98677.59;5055605;28;20029;-59
2023/10/21 06:24:34;;;;;;;1.55;0.20;;;;;;;20.95;54.51;98686.84;5056029;28;20064;-59
2023/10/21 06:27:00;;;;;;;5.57;0.28;;;;;;;21.00;54.04;98708.69;5054475;28;20501;-58
2023/10/21 06:29:26;;;;;;;0.17;0.17;;;;;;;21.00;53.85;98707.84;5054809;28;20033;-58
2023/10/21 06:31:53;;;;;;;0.63;0.10;;;;;;;20.98;54.24;98731.78;5053612;28;20409;-58
2023/10/21 06:34:18;;;;;;;0.10;0.10;;;;;;;20.97;53.53;98722.78;5052886;28;20036;-58
2023/10/21 06:36:43;;;;;;;0.00;0.00;;;;;;;20.96;53.43;98737.50;5046772;28;20037;-58
2023/10/21 06:39:09;;;;;;;0.32;0.00;;;;;;;20.98;53.67;98751.66;5052489;28;20076;-60
2023/10/21 06:41:34;;;;;;;2.55;0.10;;;;;;;20.99;53.31;98750.59;5052692;28;20049;-58
2023/10/21 06:44:00;;;;;;;1.25;0.10;;;;;;;20.96;53.18;98747.56;5053735;28;20108;-60
2023/10/21 06:46:27;;;;;;;0.25;0.10;;;;;;;20.93;53.27;98754.31;5053826;28;20029;-58
2023/10/21 06:48:54;;;;;;;3.10;0.10;;;;;;;20.92;53.05;98764.38;5035609;28;20472;-59
2023/10/21 06:51:20;;;;;;;0.68;0.10;;;;;;;20.91;53.18;98764.59;5052263;28;20057;-59
2023/10/21 06:53:45;;;;;;;0.98;0.10;;;;;;;20.94;53.47;98769.56;5053046;28;20056;-58
2023/10/21 06:56:12;;;;;;;1.48;0.10;;;;;;;21.00;53.00;98776.75;5052222;28;20519;-58
2023/10/21 06:58:38;;;;;;;0.22;0.03;;;;;;;21.05;52.80;98787.72;5052788;28;20067;-58
2023/10/21 07:01:03;;;;;;;0.90;0.10;;;;;;;21.08;52.82;98795.41;5018598;28;20459;-58
2023/10/21 07:03:29;;;;;;;0.20;0.20;;;;;;;21.08;52.70;98822.66;5052736;28;20033;-59
2023/10/21 07:05:55;;;;;;;0.43;0.20;;;;;;;21.09;53.36;98813.41;5053649;28;20032;-59
2023/10/21 07:08:21;;;;;;;0.13;0.13;;;;;;;21.26;52.95;98827.03;5056017;28;20037;-60
2023/10/21 07:10:46;;;;;;;0.20;0.20;;;;;;;21.38;52.63;98839.50;5052048;28;20044;-59
2023/10/21 07:13:11;;;;;;;0.55;0.10;;;;;;;21.31;52.14;98860.63;5052171;28;20197;-58
2023/10/21 07:15:37;;;;;;;0.88;0.13;;;;;;;21.26;53.05;98860.56;5052603;28;20526;-58
2023/10/21 07:18:02;;;;;;;2.13;0.10;;;;;;;21.29;51.93;98876.41;5052322;28;20071;-60
2023/10/21 07:20:28;;;;;;;0.10;0.10;;;;;;;21.30;52.84;98875.31;5052012;28;20174;-58
2023/10/21 07:22:54;;;;;;;0.30;0.13;;;;;;;21.41;51.70;98882.59;5052143;28;20064;-59
2023/10/21 07:25:19;;;;;;;1.23;0.30;;;;;;;21.36;51.84;98890.69;5053194;28;20043;-61
2023/10/21 07:27:46;;;;;;;0.05;0.05;;;;;;;21.38;51.80;98902.16;5051900;28;20037;-60
2023/10/21 07:30:12;;;;;;;0.03;0.03;;;;;;;21.32;51.54;98908.63;5051638;28;20037;-60
2023/10/21 07:32:37;;;;;;;1.58;0.47;;;;;;;21.23;51.99;98901.91;5034812;28;20037;-59
2023/10/21 07:35:04;;;;;;;0.10;0.10;;;;;;;21.21;52.52;98893.16;5051659;28;20037;-59
2023/10/21 07:37:30;;;;;;;1.20;1.10;;;;;;;21.14;51.41;98900.63;5052892;28;20029;-59
2023/10/21 07:39:55;;;;;;;0.73;0.43;;;;;;;21.05;52.39;98910.22;5051477;28;20072;-59
2023/10/21 07:42:21;;;;;;;0.30;0.10;;;;;;;21.00;52.00;98910.16;5034625;28;20072;-58
2023/10/21 07:44:47;;;;;;;0.65;0.30;;;;;;;21.01;51.66;98928.16;5052613;28;20052;-58
2023/10/21 07:47:13;;;;;;;0.80;0.40;;;;;;;20.98;52.06;98931.34;5052728;28;20033;-59
2023/10/21 07:49:38;;;;;;;0.50;0.30;;;;;;;20.99;52.26;98933.00;5034722;28;20095;-59
2023/10/21 07:52:04;;;;;;;0.65;0.40;;;;;;;21.29;51.63;98944.50;5052556;28;20060;-58
2023/10/21 07:54:29;;;;;;;1.30;0.43;;;;;;;21.46;50.69;98934.47;5052483;28;20099;-59
2023/10/21 07:56:54;;;;;;;0.50;0.40;;;;;;;21.71;51.10;98935.97;5051200;28;20033;-59
2023/10/21 07:59:21;;;;;;;4.43;0.70;;;;;;;21.89;50.31;98931.13;5051225;28;20041;-59
2023/10/21 08:01:47;;;;;;;0.50;0.20;;;;;;;22.14;50.60;98914.31;5051274;28;20222;-58
2023/10/21 08:04:12;;;;;;;1.45;0.10;;;;;;;22.27;49.74;98919.44;5052437;28;20029;-59
2023/10/21 08:06:38;;;;;;;2.05;0.40;;;;;;;22.44;49.40;98927.56;5051167;28;20046;-59
2023/10/21 08:09:04;;;;;;;0.08;0.08;;;;;;;22.70;49.19;98937.75;5051174;28;20104;-59
2023/10/21 08:11:30;;;;;;;1.15;0.15;;;;;;;22.81;48.65;98942.25;5051036;28;20631;-59
2023/10/21 08:13:55;;;;;;;1.65;0.20;;;;;;;22.89;48.50;98946.47;5050893;28;20037;-59
2023/10/21 08:16:20;;;;;;;0.85;0.20;;;;;;;22.76;48.27;98966.78;5052327;28;20035;-59
2023/10/21 08:18:46;;;;;;;0.43;0.10;;;;;;;22.64;48.62;98941.50;5052466;28;20090;-59
2023/10/21 08:21:13;;;;;;;0.98;0.15;;;;;;;22.60;48.90;98945.78;5052318;28;20492;-58
2023/10/21 08:23:38;;;;;;;0.80;0.10;;;;;;;22.52;49.02;98955.25;5051594;28;20033;-59
2023/10/21 08:26:04;;;;;;;1.85;0.10;;;;;;;22.46;48.66;98961.72;5054802;28;20091;-59
2023/10/21 08:28:30;;;;;;;1.65;0.38;;;;;;;22.50;48.93;98972.97;5055449;28;20045;-60
2023/10/21 08:30:55;;;;;;;1.08;0.40;;;;;;;22.59;47.90;98982.34;5054942;28;20017;-59
2023/10/21 08:33:20;;;;;;;1.25;0.30;;;;;;;22.87;47.88;98984.09;5054876;28;20207;-60
2023/10/21 08:35:46;;;;;;;3.60;0.30;;;;;;;23.16;47.94;98982.84;5054985;28;20468;-59
2023/10/21 08:38:13;;;;;;;1.85;0.25;;;;;;;23.39;46.68;98987.22;5054800;28;20013;-62
2023/10/21 08:40:39;;;;;;;4.18;0.25;;;;;;;23.58;46.29;98997.56;5038593;28;20028;-59
2023/10/21 08:43:05;;;;;;;3.08;0.38;;;;;;;23.72;46.57;98982.38;5054714;28;20392;-59
2023/10/21 08:45:31;;;;;;;12.05;0.60;;;;;;;24.06;45.86;98998.53;5054691;28;20029;-59
2023/10/21 08:47:57;;;;;;;1.45;0.20;;;;;;;24.23;45.67;98977.34;5055909;28;20036;-61
2023/10/21 08:50:24;;;;;;;4.45;0.43;;;;;;;24.45;44.86;98991.72;5054469;28;20017;-60
2023/10/21 08:52:50;;;;;;;2.95;0.40;;;;;;;24.61;44.82;99007.16;5054605;28;20048;-59
2023/10/21 08:55:15;;;;;;;0.73;0.28;;;;;;;24.82;44.43;99008.13;5054462;28;20100;-59
2023/10/21 08:57:41;;;;;;;0.85;0.10;;;;;;;25.07;44.24;99010.19;5055895;28;20071;-59
2023/10/21 09:00:10;;;;;;;0.80;0.43;;;;;;;25.29;43.98;99002.59;5054362;28;20059;-60
2023/10/21 09:02:35;;;;;;;3.30;0.30;;;;;;;25.47;43.92;99007.59;5022045;28;20029;-61
2023/10/21 09:05:00;;;;;;;1.70;0.25;;;;;;;25.73;43.21;99016.69;5054322;28;20438;-61
2023/10/21 09:07:46;;;;;;;0.75;0.40;;;;;;;26.04;42.89;99021.97;5037651;28;20504;-58
2023/10/21 09:10:12;;;;;;;1.33;0.47;;;;;;;26.38;42.56;99016.72;5054435;28;20036;-60
2023/10/21 09:12:38;;;;;;;0.80;0.25;;;;;;;27.14;41.72;99019.31;5055656;28;20048;-60
2023/10/21 09:15:05;;;;;;;4.45;0.60;;;;;;;28.36;39.15;99030.44;5055656;28;20032;-60
2023/10/21 09:17:34;;;;;;;1.58;0.38;;;;;;;28.02;39.78;99031.25;5055387;28;20167;-59
2023/10/21 09:20:00;;;;;;;1.45;0.40;;;;;;;27.73;40.89;99049.59;5055481;28;20032;-59
2023/10/21 09:22:27;;;;;;;0.73;0.20;;;;;;;27.72;40.19;99045.22;5054115;28;20022;-60
2023/10/21 09:25:08;;;;;;;1.65;0.30;;;;;;;27.80;40.49;99039.09;5037313;28;20069;-59
2023/10/21 09:27:33;;;;;;;1.52;0.35;;;;;;;27.23;40.58;99045.16;5055405;28;20037;-60
2023/10/21 09:30:00;;;;;;;0.82;0.30;;;;;;;27.27;41.21;99056.41;5054029;28;20043;-60
2023/10/21 09:32:28;;;;;;;1.08;0.50;;;;;;;27.78;40.51;99052.31;5037298;28;20048;-61
2023/10/21 09:35:12;;;;;;;0.50;0.38;;;;;;;28.46;39.56;99041.38;5053601;28;20033;-62
2023/10/21 09:37:37;;;;;;;3.72;0.80;;;;;;;28.95;38.97;99047.50;5052923;28;20142;-68
2023/10/21 09:40:06;;;;;;;1.27;0.70;;;;;;;29.43;38.32;99054.69;5053743;28;20500;-62
2023/10/21 09:42:36;;;;;;;9.45;0.70;;;;;;;29.54;38.16;99062.84;5053713;28;20049;-61
2023/10/21 09:45:03;;;;;;;2.80;0.50;;;;;;;29.20;38.83;99074.00;5053451;28;20033;-61
2023/10/21 09:47:29;;;;;;;1.30;0.30;;;;;;;29.59;37.54;99073.81;5053571;28;20049;-62
2023/10/21 09:49:56;;;;;;;2.95;0.35;;;;;;;29.56;36.78;99044.88;5055187;28;20060;-62
2023/10/21 09:52:34;;;;;;;1.70;0.30;;;;;;;29.72;36.56;99086.88;5053870;28;20091;-62
2023/10/21 09:55:07;;;;;;;0.95;0.20;;;;;;;29.89;36.14;99076.19;5037603;28;20041;-62
2023/10/21 09:57:36;;;;;;;0.93;0.20;;;;;;;30.01;35.96;99074.59;5054204;28;20045;-62
2023/10/21 10:00:02;;;;;;;1.27;0.65;;;;;;;29.94;36.50;99078.88;5054052;28;20055;-62
2023/10/21 10:02:28;;;;;;;3.30;0.28;;;;;;;30.29;35.80;99086.59;5055145;28;20444;-67
2023/10/21 10:04:53;;;;;;;2.70;0.57;;;;;;;30.46;35.64;99095.19;5054188;28;20056;-64
2023/10/21 10:07:19;;;;;;;1.10;0.22;;;;;;;29.20;36.75;99085.81;5053754;28;20500;-61
2023/10/21 10:09:45;;;;;;;1.88;0.35;;;;;;;28.45;36.87;99108.63;5053964;28;20044;-61
2023/10/21 10:12:19;;;;;;;0.40;0.25;;;;;;;29.21;35.62;99104.03;5054278;28;20029;-61
2023/10/21 10:14:45;;;;;;;4.88;0.45;;;;;;;29.71;35.60;99099.03;5053871;28;20037;-62
2023/10/21 10:17:13;;;;;;;3.55;0.30;;;;;;;29.94;35.55;99117.53;5054731;28;20036;-61
2023/10/21 10:19:42;;;;;;;2.08;0.20;;;;;;;29.70;35.94;99105.69;5053657;28;20033;-62
2023/10/21 10:22:22;;;;;;;2.45;0.30;;;;;;;28.75;36.41;99113.91;5053115;28;20049;-62
2023/10/21 10:25:05;;;;;;;1.95;0.88;;;;;;;28.47;36.90;99125.69;5053505;28;20017;-72
2023/10/21 10:27:41;;;;;;;0.52;0.25;;;;;;;28.57;36.83;99123.66;5053521;28;20100;-63
2023/10/21 10:30:21;;;;;;;3.25;0.40;;;;;;;29.48;35.37;99125.56;5054681;28;20032;-62
2023/10/21 10:32:51;;;;;;;1.90;0.32;;;;;;;29.25;36.05;99126.38;5037341;28;20025;-62
2023/10/21 10:35:37;;;;;;;1.35;0.73;;;;;;;28.17;36.62;99122.03;5054980;28;20041;-62
2023/10/21 10:38:16;;;;;;;2.40;0.40;;;;;;;27.71;36.69;99128.88;5054577;28;20033;-62
2023/10/21 10:40:44;;;;;;;3.13;0.40;;;;;;;27.31;37.14;99134.50;5053735;28;20442;-62
2023/10/21 10:43:13;;;;;;;3.25;0.82;;;;;;;26.98;37.62;99136.78;5035478;28;20029;-62
2023/10/21 10:45:39;;;;;;;0.77;0.28;;;;;;;26.63;37.61;99139.53;5053038;28;20448;-62
2023/10/21 10:48:07;;;;;;;4.32;0.73;;;;;;;26.47;38.09;99144.19;5054061;28;20053;-64
2023/10/21 10:50:36;;;;;;;2.38;0.43;;;;;;;26.23;37.84;99142.22;5054193;28;20056;-62
2023/10/21 10:53:12;;;;;;;2.45;0.70;;;;;;;25.98;38.83;99137.47;5052652;28;20037;-62
2023/10/21 10:55:40;;;;;;;6.60;0.82;;;;;;;26.98;37.47;99134.03;5053923;28;20043;-63
2023/10/21 10:58:05;;;;;;;2.55;0.60;;;;;;;27.86;36.06;99131.56;5035964;28;20029;-64
2023/10/21 11:00:31;;;;;;;1.25;0.63;;;;;;;28.52;35.39;99125.63;5036329;28;20496;-63
2023/10/21 11:02:57;;;;;;;3.10;0.60;;;;;;;28.89;35.61;99139.69;5054917;28;20404;-65
2023/10/21 11:05:22;;;;;;;1.23;0.73;;;;;;;29.20;34.76;99137.44;5053998;28;20029;-63
2023/10/21 11:07:52;;;;;;;5.70;0.75;;;;;;;29.43;34.41;99126.44;5053821;28;20033;-62
2023/10/21 11:10:22;;;;;;;2.10;0.93;;;;;;;29.61;34.09;99141.41;5052573;28;20507;-62
2023/10/21 11:12:48;;;;;;;6.00;0.90;;;;;;;29.43;34.21;99145.75;5053924;28;20557;-65
2023/10/21 11:15:14;;;;;;;1.98;0.57;;;;;;;29.04;34.66;99166.28;5052587;28;20034;-63
2023/10/21 11:17:40;;;;;;;2.00;0.70;;;;;;;28.22;35.60;99146.81;5052045;28;20048;-65
2023/10/21 11:20:08;;;;;;;4.72;0.70;;;;;;;27.68;35.64;99154.19;5053791;28;20107;-61
2023/10/21 11:22:34;;;;;;;2.85;0.80;;;;;;;28.22;34.40;99151.47;5053365;28;20480;-62
2023/10/21 11:24:59;;;;;;;3.95;0.75;;;;;;;27.62;35.30;99160.81;5051086;28;20024;-62
2023/10/21 11:27:25;;;;;;;3.60;0.80;;;;;;;27.14;35.74;99157.63;5052047;28;20370;-66
2023/10/21 11:29:52;;;;;;;7.45;1.20;;;;;;;27.41;35.99;99162.00;5052200;28;20027;-61
2023/10/21 11:32:30;;;;;;;2.20;0.50;;;;;;;27.11;35.68;99158.19;5035593;28;20515;-62